Time;durP1;ratioP1;P1;durP2;ratioP2;P2;SDS_P1;SDS_P2;PMS_P1;PMS_P2;Temp;Humidity;BMP_temperature;BMP_pressure;BME280_temperature;BME280_humidity;BME280_pressure;Samples;Min_cycle;Max_cycle;Signal;HPM_P1;HPM_P2
2023/10/25 00:00:38;;;;;;;17.70;7.43;;;;;;;17.90;77.20;100850.91;5071745;28;20025;-61
2023/10/25 00:03:04;;;;;;;18.67;7.53;;;;;;;17.66;78.91;100853.88;5071643;28;20479;-61
2023/10/25 00:05:34;;;;;;;18.95;7.40;;;;;;;17.86;78.01;100861.44;5071530;28;20476;-61
2023/10/25 00:08:00;;;;;;;24.88;7.90;;;;;;;17.76;77.37;100864.00;5071698;28;20032;-61
2023/10/25 00:10:27;;;;;;;17.30;6.78;;;;;;;17.82;77.82;100867.59;5071775;28;20044;-60
2023/10/25 00:12:53;;;;;;;15.07;7.35;;;;;;;17.87;78.40;100865.75;5070637;28;20138;-57
2023/10/25 00:15:21;;;;;;;28.58;7.53;;;;;;;17.89;78.49;100866.34;5067156;28;20025;-57
2023/10/25 00:17:49;;;;;;;11.45;6.28;;;;;;;17.98;77.86;100865.88;5071515;28;20032;-61
2023/10/25 00:20:15;;;;;;;17.52;7.03;;;;;;;17.86;78.82;100871.44;5071533;28;20028;-65
2023/10/25 00:22:41;;;;;;;19.05;6.85;;;;;;;18.04;77.54;100870.28;5070923;28;20113;-58
2023/10/25 00:25:08;;;;;;;13.85;6.20;;;;;;;17.91;76.38;100874.22;5063104;28;20028;-59
2023/10/25 00:27:34;;;;;;;22.98;7.30;;;;;;;17.86;77.36;100874.97;5071319;28;20020;-59
2023/10/25 00:30:01;;;;;;;18.90;7.30;;;;;;;17.79;76.91;100874.34;5070459;28;20086;-59
2023/10/25 00:32:27;;;;;;;12.73;6.30;;;;;;;17.95;76.40;100875.34;5070543;28;20545;-59
2023/10/25 00:34:53;;;;;;;10.23;5.97;;;;;;;17.85;76.89;100876.03;5069359;28;20028;-60
2023/10/25 00:37:19;;;;;;;15.68;6.80;;;;;;;17.59;78.19;100874.88;5069724;28;20056;-60
2023/10/25 00:39:45;;;;;;;20.90;7.72;;;;;;;17.36;78.99;100877.81;5071101;28;20440;-58
2023/10/25 00:42:12;;;;;;;18.70;6.88;;;;;;;17.50;78.26;100881.00;5071283;28;20111;-58
2023/10/25 00:44:39;;;;;;;20.23;7.30;;;;;;;16.97;80.62;100877.81;5070840;28;20450;-58
2023/10/25 00:47:05;;;;;;;16.50;7.22;;;;;;;16.96;81.05;100870.78;5071183;28;20032;-58
2023/10/25 00:49:32;;;;;;;17.77;7.55;;;;;;;16.77;82.32;100877.50;5069938;28;20044;-58
2023/10/25 00:51:59;;;;;;;14.70;7.43;;;;;;;16.49;84.10;100887.28;5068517;28;20492;-58
2023/10/25 00:54:26;;;;;;;13.68;7.28;;;;;;;16.48;84.84;100885.63;5071497;28;20058;-58
2023/10/25 00:56:55;;;;;;;18.60;7.90;;;;;;;16.24;86.84;100878.72;5071774;28;20475;-58
2023/10/25 00:59:22;;;;;;;15.27;7.65;;;;;;;16.31;87.22;100879.38;5071381;28;20367;-58
2023/10/25 01:01:50;;;;;;;19.65;9.18;;;;;;;15.91;89.61;100880.28;5070655;28;20036;-58
2023/10/25 01:04:17;;;;;;;15.38;8.45;;;;;;;15.84;90.34;100888.50;5071699;28;20089;-58
2023/10/25 01:06:43;;;;;;;19.48;9.35;;;;;;;15.70;91.87;100883.63;5071331;28;20100;-58
2023/10/25 01:09:09;;;;;;;18.17;9.20;;;;;;;15.77;91.02;100879.75;5071580;28;20209;-57
2023/10/25 01:11:36;;;;;;;13.27;8.27;;;;;;;15.64;91.65;100892.66;5071517;28;20024;-58
2023/10/25 01:14:02;;;;;;;13.25;9.20;;;;;;;15.46;92.39;100897.13;5071484;28;20020;-58
2023/10/25 01:16:29;;;;;;;19.45;8.98;;;;;;;15.36;92.49;100905.00;5068330;28;20039;-57
2023/10/25 01:18:55;;;;;;;14.55;8.98;;;;;;;15.15;94.59;100913.66;5057650;28;20593;-58
2023/10/25 01:21:21;;;;;;;18.88;9.45;;;;;;;15.29;94.82;100913.22;5072497;28;20020;-58
2023/10/25 01:23:52;;;;;;;21.80;9.48;;;;;;;15.00;96.38;100916.84;5069809;28;20103;-58
2023/10/25 01:26:19;;;;;;;17.02;9.27;;;;;;;15.18;96.00;100921.31;5071305;28;20020;-58
2023/10/25 01:28:45;;;;;;;25.92;10.43;;;;;;;15.28;96.16;100921.53;5074638;28;20040;-58
2023/10/25 01:31:11;;;;;;;31.08;10.18;;;;;;;15.26;96.12;100929.84;5074745;28;20020;-58
2023/10/25 01:33:37;;;;;;;18.08;9.30;;;;;;;15.12;97.43;100935.72;5074509;28;20054;-58
2023/10/25 01:36:04;;;;;;;20.95;9.45;;;;;;;15.18;96.94;100934.78;5055284;28;20429;-58
2023/10/25 01:38:30;;;;;;;16.20;8.20;;;;;;;15.17;96.48;100933.16;5061690;28;20032;-59
2023/10/25 01:40:56;;;;;;;20.00;8.65;;;;;;;15.15;95.98;100936.06;5074679;28;20127;-58
2023/10/25 01:43:22;;;;;;;18.40;9.05;;;;;;;15.13;96.00;100937.38;5074779;28;20025;-58
2023/10/25 01:45:50;;;;;;;20.60;8.95;;;;;;;15.08;96.69;100935.34;5075092;28;20021;-59
2023/10/25 01:48:16;;;;;;;19.23;9.23;;;;;;;14.97;97.86;100930.78;5074801;28;20449;-58
2023/10/25 01:50:42;;;;;;;17.98;8.45;;;;;;;15.02;97.68;100941.69;5073095;28;20082;-59
2023/10/25 01:53:08;;;;;;;20.60;9.27;;;;;;;14.86;98.75;100945.88;5063543;28;20024;-57
2023/10/25 01:55:40;;;;;;;15.80;8.18;;;;;;;14.82;98.22;100946.56;5074909;28;20032;-58
2023/10/25 01:58:06;;;;;;;19.88;9.10;;;;;;;14.78;99.45;100946.22;5074476;28;20032;-57
2023/10/25 02:00:32;;;;;;;16.67;7.85;;;;;;;14.77;99.98;100950.78;5071827;28;20111;-58
2023/10/25 02:02:58;;;;;;;15.43;8.52;;;;;;;14.69;99.90;100945.72;5055075;28;20013;-58
2023/10/25 02:05:25;;;;;;;17.23;8.45;;;;;;;14.78;99.80;100952.44;5059481;28;20021;-58
2023/10/25 02:07:51;;;;;;;15.15;8.02;;;;;;;14.79;99.37;100942.47;5073943;28;20025;-58
2023/10/25 02:10:18;;;;;;;15.85;7.57;;;;;;;14.61;100.00;100939.88;5074395;28;20100;-58
2023/10/25 02:12:45;;;;;;;12.52;7.40;;;;;;;14.68;98.90;100948.66;5072237;28;20021;-58
2023/10/25 02:15:11;;;;;;;17.27;7.15;;;;;;;14.52;100.00;100945.56;5053957;28;20024;-58
2023/10/25 02:17:37;;;;;;;14.43;7.00;;;;;;;14.56;99.92;100942.44;5059709;28;20480;-59
2023/10/25 02:20:04;;;;;;;13.32;7.03;;;;;;;14.49;100.00;100937.97;5073720;28;20131;-58
2023/10/25 02:22:30;;;;;;;24.75;7.57;;;;;;;14.53;100.00;100935.59;5069299;28;20044;-57
2023/10/25 02:24:56;;;;;;;22.02;7.75;;;;;;;14.49;100.00;100940.66;5061964;28;20021;-58
2023/10/25 02:27:22;;;;;;;13.80;6.97;;;;;;;14.48;100.00;100946.25;5072218;28;20021;-59
2023/10/25 02:29:49;;;;;;;17.83;7.57;;;;;;;14.48;100.00;100936.28;5073249;28;20080;-58
2023/10/25 02:32:15;;;;;;;18.65;7.07;;;;;;;14.55;100.00;100938.91;5073172;28;20024;-58
2023/10/25 02:34:41;;;;;;;15.32;7.22;;;;;;;14.53;99.94;100928.34;5073680;28;20513;-59
2023/10/25 02:37:08;;;;;;;20.05;6.88;;;;;;;14.59;99.12;100941.94;5073491;28;20025;-58
2023/10/25 02:39:34;;;;;;;21.15;7.70;;;;;;;14.50;99.48;100939.59;5073312;28;20124;-58
2023/10/25 02:42:00;;;;;;;13.77;7.43;;;;;;;14.50;99.74;100949.53;5073034;28;20029;-58
2023/10/25 02:44:27;;;;;;;16.85;6.90;;;;;;;14.50;99.64;100955.75;5073487;28;20465;-59
2023/10/25 02:46:56;;;;;;;18.50;8.45;;;;;;;14.46;99.51;100965.31;5073406;28;20036;-58
2023/10/25 02:49:23;;;;;;;17.23;6.35;;;;;;;14.44;100.00;100964.72;5073505;28;20037;-58
2023/10/25 02:51:49;;;;;;;23.08;7.32;;;;;;;14.41;99.87;100964.34;5072900;28;20027;-58
2023/10/25 02:54:17;;;;;;;17.30;6.20;;;;;;;14.43;100.00;100960.34;5066516;28;20431;-58
2023/10/25 02:56:43;;;;;;;18.92;6.70;;;;;;;14.37;99.28;100972.03;5053217;28;20079;-58
2023/10/25 02:59:09;;;;;;;16.45;7.40;;;;;;;14.49;98.21;100964.03;5053029;28;20033;-58
2023/10/25 03:01:36;;;;;;;25.08;7.32;;;;;;;14.31;99.00;100972.13;5052491;28;20418;-58
2023/10/25 03:04:02;;;;;;;20.75;7.00;;;;;;;14.31;99.09;100975.66;5052963;28;20395;-59
2023/10/25 03:06:28;;;;;;;20.55;7.35;;;;;;;14.24;98.97;100972.22;5052953;28;20100;-58
2023/10/25 03:08:54;;;;;;;22.27;6.32;;;;;;;14.35;97.62;100967.94;5053145;28;20029;-58
2023/10/25 03:11:20;;;;;;;20.23;7.30;;;;;;;14.19;98.02;100972.09;5052431;28;20104;-59
2023/10/25 03:13:47;;;;;;;18.85;6.60;;;;;;;14.18;97.95;100975.84;5052718;28;20025;-59
2023/10/25 03:16:13;;;;;;;17.13;6.70;;;;;;;14.21;97.00;100972.66;5052551;28;20455;-59
2023/10/25 03:18:39;;;;;;;18.00;6.03;;;;;;;14.35;95.54;100974.16;5052795;28;20056;-59
2023/10/25 03:21:06;;;;;;;25.58;7.63;;;;;;;14.27;95.66;100975.31;5052526;28;20025;-58
2023/10/25 03:23:32;;;;;;;20.48;7.18;;;;;;;14.23;96.92;100967.91;5052572;28;20115;-58
2023/10/25 03:26:06;;;;;;;18.95;6.90;;;;;;;14.08;98.01;100976.34;5052347;28;20514;-59
2023/10/25 03:28:33;;;;;;;19.67;7.22;;;;;;;14.00;98.14;100979.38;5069986;28;20094;-58
2023/10/25 03:31:05;;;;;;;18.92;6.80;;;;;;;14.00;97.80;100968.59;5072185;28;20122;-58
2023/10/25 03:33:31;;;;;;;21.15;7.57;;;;;;;14.10;96.50;100982.34;5072256;28;20020;-58
2023/10/25 03:35:58;;;;;;;22.60;7.20;;;;;;;14.08;95.87;100983.63;5072007;28;20466;-58
2023/10/25 03:38:24;;;;;;;24.98;6.72;;;;;;;14.11;95.77;100989.38;5072150;28;20043;-58
2023/10/25 03:41:04;;;;;;;19.20;6.80;;;;;;;14.10;95.76;100985.06;5058209;28;20025;-58
2023/10/25 03:43:31;;;;;;;27.90;6.43;;;;;;;14.06;95.56;100975.78;5051628;28;20064;-59
2023/10/25 03:46:05;;;;;;;19.40;6.68;;;;;;;14.02;96.12;100979.13;5052043;28;20029;-59
2023/10/25 03:48:35;;;;;;;20.67;6.70;;;;;;;13.79;97.91;100977.94;5052543;28;20033;-59
2023/10/25 03:51:05;;;;;;;22.55;7.38;;;;;;;13.77;97.53;100985.44;5051929;28;20021;-59
2023/10/25 03:53:35;;;;;;;16.70;6.32;;;;;;;13.78;97.36;100978.19;5051809;28;20025;-58
2023/10/25 03:56:02;;;;;;;25.00;7.25;;;;;;;13.69;97.51;100970.38;5051740;28;20063;-57
2023/10/25 03:58:29;;;;;;;30.48;7.43;;;;;;;13.65;98.16;100969.19;5052051;28;20033;-57
2023/10/25 04:01:04;;;;;;;16.58;6.65;;;;;;;13.83;97.32;100960.31;5067257;28;20081;-58
2023/10/25 04:03:31;;;;;;;29.50;6.95;;;;;;;13.69;96.83;100966.88;5072136;28;20100;-57
2023/10/25 04:05:57;;;;;;;17.95;6.63;;;;;;;13.67;96.89;100964.41;5071575;28;20020;-57
2023/10/25 04:08:24;;;;;;;21.65;7.72;;;;;;;13.67;96.97;100967.09;5071915;28;20075;-58
2023/10/25 04:10:54;;;;;;;19.13;6.57;;;;;;;13.75;96.09;100968.66;5071560;28;20414;-58
2023/10/25 04:13:21;;;;;;;17.92;6.13;;;;;;;13.71;95.98;100972.84;5071789;28;20024;-58
2023/10/25 04:15:59;;;;;;;20.52;6.15;;;;;;;13.75;95.55;100979.44;5071776;28;20029;-59
2023/10/25 04:18:26;;;;;;;12.07;5.60;;;;;;;13.68;95.25;100976.00;5071632;28;20115;-59
2023/10/25 04:20:53;;;;;;;24.20;6.53;;;;;;;13.79;94.21;100969.88;5071259;28;20180;-58
2023/10/25 04:23:20;;;;;;;25.15;6.47;;;;;;;13.68;94.40;100984.06;5071614;28;20043;-58
2023/10/25 04:25:46;;;;;;;14.85;5.88;;;;;;;13.71;94.18;100994.34;5071594;28;20532;-58
2023/10/25 04:28:13;;;;;;;21.58;5.47;;;;;;;13.58;94.89;100989.94;5070873;28;20047;-58
2023/10/25 04:30:40;;;;;;;14.40;5.97;;;;;;;13.68;94.60;101000.19;5071082;28;20203;-58
2023/10/25 04:33:07;;;;;;;19.13;5.68;;;;;;;13.66;94.37;100994.22;5071639;28;20024;-58
2023/10/25 04:35:33;;;;;;;19.17;6.03;;;;;;;13.57;95.25;100992.88;5071482;28;20440;-57
2023/10/25 04:38:00;;;;;;;22.80;6.32;;;;;;;13.68;94.92;101000.19;5071828;28;20032;-58
2023/10/25 04:40:26;;;;;;;24.67;6.65;;;;;;;13.51;95.45;101004.50;5070553;28;20478;-58
2023/10/25 04:42:56;;;;;;;16.88;6.00;;;;;;;13.63;94.94;101002.72;5071671;28;20025;-58
2023/10/25 04:45:22;;;;;;;23.73;6.15;;;;;;;13.52;95.66;100998.91;5071931;28;20024;-58
2023/10/25 04:47:52;;;;;;;34.90;7.28;;;;;;;13.57;95.37;101000.94;5071190;28;20048;-58
2023/10/25 04:50:20;;;;;;;27.92;6.93;;;;;;;13.55;95.58;101008.38;5071277;28;20048;-58
2023/10/25 04:52:46;;;;;;;22.80;6.68;;;;;;;13.54;95.67;101002.19;5070798;28;20544;-57
2023/10/25 04:55:13;;;;;;;14.98;5.50;;;;;;;13.52;95.58;101000.78;5056369;28;20041;-60
2023/10/25 04:57:39;;;;;;;14.68;6.05;;;;;;;13.57;95.03;101001.75;5057194;28;20025;-60
2023/10/25 05:00:09;;;;;;;22.70;5.75;;;;;;;13.44;95.23;100996.50;5075471;28;20024;-60
2023/10/25 05:02:38;;;;;;;19.58;6.78;;;;;;;13.46;95.30;100989.03;5075327;28;20029;-60
2023/10/25 05:05:08;;;;;;;17.42;5.22;;;;;;;13.52;94.69;100998.09;5075370;28;20086;-60
2023/10/25 05:07:37;;;;;;;18.27;5.93;;;;;;;13.57;94.00;101001.75;5075214;28;20055;-60
2023/10/25 05:10:08;;;;;;;19.88;6.40;;;;;;;13.60;93.66;101003.16;5075189;28;20032;-60
2023/10/25 05:12:38;;;;;;;14.73;5.50;;;;;;;13.54;93.67;101004.06;5071316;28;20105;-61
2023/10/25 05:15:06;;;;;;;21.38;5.47;;;;;;;13.51;93.30;101007.19;5053701;28;20033;-61
2023/10/25 05:17:33;;;;;;;14.98;5.75;;;;;;;13.44;94.50;101020.72;5067572;28;20035;-61
2023/10/25 05:20:00;;;;;;;21.25;6.63;;;;;;;13.42;94.56;101025.47;5064399;28;20107;-61
2023/10/25 05:22:30;;;;;;;24.70;6.75;;;;;;;13.28;95.73;101023.94;5055167;28;20025;-61
2023/10/25 05:24:56;;;;;;;20.02;6.32;;;;;;;13.44;94.83;101034.16;5055115;28;20021;-61
2023/10/25 05:27:23;;;;;;;16.77;6.13;;;;;;;13.51;94.44;101032.22;5055384;28;20128;-61
2023/10/25 05:29:49;;;;;;;22.00;6.63;;;;;;;13.37;95.12;101036.88;5055064;28;20348;-60
2023/10/25 05:32:19;;;;;;;20.45;6.22;;;;;;;13.44;95.52;101032.28;5054157;28;20479;-60
2023/10/25 05:34:48;;;;;;;19.42;6.60;;;;;;;13.38;95.47;101030.47;5054793;28;20021;-60
2023/10/25 05:37:15;;;;;;;21.25;6.18;;;;;;;13.46;94.70;101029.38;5054754;28;20021;-60
2023/10/25 05:39:43;;;;;;;16.42;6.28;;;;;;;13.40;95.01;101031.06;5054696;28;20037;-60
2023/10/25 05:42:17;;;;;;;21.45;6.72;;;;;;;13.19;96.41;101036.78;5054279;28;20104;-61
2023/10/25 05:44:43;;;;;;;24.08;6.75;;;;;;;13.27;96.12;101041.94;5054672;28;20028;-62
2023/10/25 05:47:09;;;;;;;15.68;6.15;;;;;;;13.39;95.22;101044.75;5054484;28;20029;-61
2023/10/25 05:49:36;;;;;;;26.90;7.20;;;;;;;13.17;96.72;101055.00;5054780;28;20037;-61
2023/10/25 05:52:03;;;;;;;30.20;7.40;;;;;;;13.16;96.57;101058.75;5064718;28;20035;-61
2023/10/25 05:54:29;;;;;;;24.15;6.50;;;;;;;13.28;95.55;101061.59;5065340;28;20036;-61
2023/10/25 05:56:56;;;;;;;15.25;5.38;;;;;;;13.32;95.48;101062.78;5054118;28;20029;-61
2023/10/25 05:59:23;;;;;;;14.95;5.63;;;;;;;13.23;94.94;101051.47;5072074;28;20025;-63
2023/10/25 06:01:54;;;;;;;23.08;6.47;;;;;;;13.19;96.11;101047.53;5073791;28;20028;-63
2023/10/25 06:04:23;;;;;;;22.50;6.03;;;;;;;13.03;97.11;101043.50;5073990;28;20119;-63
2023/10/25 06:06:50;;;;;;;21.50;6.88;;;;;;;13.14;96.30;101050.88;5073673;28;20066;-63
2023/10/25 06:09:16;;;;;;;18.23;6.13;;;;;;;13.02;97.32;101049.94;5073998;28;20065;-62
2023/10/25 06:11:43;;;;;;;23.60;6.07;;;;;;;13.11;96.95;101048.63;5074147;28;20031;-62
2023/10/25 06:14:09;;;;;;;18.77;5.97;;;;;;;13.11;97.02;101048.63;5074064;28;20048;-62
2023/10/25 06:16:36;;;;;;;28.92;6.88;;;;;;;13.09;97.01;101049.88;5074362;28;20028;-63
2023/10/25 06:19:02;;;;;;;23.85;6.72;;;;;;;13.08;97.23;101042.88;5073786;28;20451;-63
2023/10/25 06:21:28;;;;;;;19.35;6.38;;;;;;;13.15;96.67;101040.94;5073552;28;20077;-63
2023/10/25 06:23:55;;;;;;;20.02;6.32;;;;;;;13.17;96.29;101046.94;5074080;28;20478;-64
2023/10/25 06:26:21;;;;;;;19.20;6.47;;;;;;;13.04;97.25;101053.22;5073994;28;20816;-64
2023/10/25 06:28:47;;;;;;;20.90;6.00;;;;;;;13.00;97.33;101068.16;5073498;28;20053;-64
2023/10/25 06:31:16;;;;;;;17.48;5.18;;;;;;;13.03;97.34;101072.25;5073428;28;20120;-64
2023/10/25 06:33:42;;;;;;;23.73;5.88;;;;;;;13.08;97.38;101084.00;5072923;28;20021;-64
2023/10/25 06:36:10;;;;;;;21.95;5.63;;;;;;;12.97;97.20;101083.88;5073596;28;20036;-63
2023/10/25 06:38:37;;;;;;;15.18;5.32;;;;;;;13.04;96.89;101073.91;5073412;28;20549;-63
2023/10/25 06:41:03;;;;;;;19.52;5.65;;;;;;;12.87;98.26;101076.25;5073186;28;20070;-63
2023/10/25 06:43:30;;;;;;;27.67;7.03;;;;;;;12.93;97.61;101078.09;5073041;28;20028;-63
2023/10/25 06:45:58;;;;;;;25.20;6.53;;;;;;;12.97;96.83;101075.81;5073508;28;20029;-63
2023/10/25 06:48:25;;;;;;;24.58;6.97;;;;;;;12.97;97.21;101065.06;5073308;28;20073;-63
2023/10/25 06:50:52;;;;;;;20.33;5.45;;;;;;;13.03;96.69;101054.25;5073311;28;20028;-61
2023/10/25 06:53:21;;;;;;;20.52;5.25;;;;;;;12.87;97.48;101052.09;5073206;28;20039;-62
2023/10/25 06:55:47;;;;;;;27.40;6.75;;;;;;;12.96;96.79;101050.81;5053425;28;20116;-62
2023/10/25 06:58:13;;;;;;;18.20;5.72;;;;;;;12.97;96.26;101055.13;5053133;28;20025;-62
2023/10/25 07:00:40;;;;;;;19.02;6.40;;;;;;;12.93;96.24;101062.78;5052964;28;20025;-62
2023/10/25 07:03:11;;;;;;;21.75;5.60;;;;;;;12.95;96.07;101060.72;5057211;28;20031;-62
2023/10/25 07:05:40;;;;;;;14.38;4.90;;;;;;;13.00;95.97;101067.31;5072751;28;20144;-61
2023/10/25 07:08:06;;;;;;;17.50;4.97;;;;;;;13.03;95.94;101061.50;5072716;28;20031;-60
2023/10/25 07:10:33;;;;;;;24.98;5.40;;;;;;;13.00;95.95;101062.78;5114453;22;20048;-60
2023/10/25 07:13:00;;;;;;;18.02;6.15;;;;;;;12.83;96.73;101051.72;5113321;28;20051;-60
2023/10/25 07:15:26;;;;;;;23.02;5.57;;;;;;;12.66;98.15;101050.56;5113500;28;20634;-60
2023/10/25 07:17:53;;;;;;;18.38;6.18;;;;;;;12.75;97.76;101051.94;5113221;28;20035;-60
2023/10/25 07:20:19;;;;;;;24.00;5.43;;;;;;;12.92;96.45;101061.16;5112642;28;20050;-60
2023/10/25 07:22:45;;;;;;;11.80;5.40;;;;;;;12.85;96.52;101060.38;5113456;28;20038;-62
2023/10/25 07:25:11;;;;;;;17.50;4.82;;;;;;;12.87;96.02;101058.28;5113263;28;20028;-64
2023/10/25 07:27:38;;;;;;;12.55;5.00;;;;;;;13.03;94.96;101066.88;5112947;28;20028;-64
2023/10/25 07:30:05;;;;;;;14.85;4.50;;;;;;;12.99;95.32;101071.84;5112859;28;20481;-64
2023/10/25 07:32:33;;;;;;;16.63;5.30;;;;;;;12.99;95.11;101079.09;5113204;28;20023;-64
2023/10/25 07:34:59;;;;;;;19.60;5.22;;;;;;;12.95;95.30;101073.34;5112818;28;20110;-59
2023/10/25 07:37:25;;;;;;;14.10;4.82;;;;;;;12.90;95.68;101078.53;5113427;28;20056;-59
2023/10/25 07:39:52;;;;;;;11.75;4.72;;;;;;;12.93;95.04;101095.03;5112618;28;20504;-58
2023/10/25 07:42:18;;;;;;;18.73;4.97;;;;;;;12.91;95.32;101096.31;5112952;28;20023;-58
2023/10/25 07:44:44;;;;;;;17.15;5.50;;;;;;;12.83;96.28;101105.44;5112848;28;20457;-58
2023/10/25 07:47:11;;;;;;;23.23;6.00;;;;;;;12.87;95.54;101105.81;5112419;28;20024;-58
2023/10/25 07:49:37;;;;;;;19.25;5.05;;;;;;;12.91;95.54;101107.88;5112876;28;20035;-58
2023/10/25 07:52:04;;;;;;;12.32;5.18;;;;;;;13.06;94.85;101109.44;5112987;28;20103;-59
2023/10/25 07:54:30;;;;;;;14.30;4.90;;;;;;;12.94;95.21;101112.81;5103276;28;20023;-59
2023/10/25 07:56:56;;;;;;;13.23;4.68;;;;;;;12.86;95.38;101101.50;5092280;28;20478;-58
2023/10/25 07:59:22;;;;;;;12.63;4.15;;;;;;;12.86;95.09;101104.19;5092138;28;20032;-58
2023/10/25 08:01:49;;;;;;;13.95;5.13;;;;;;;12.96;94.49;101096.47;5092408;28;20089;-59
2023/10/25 08:04:16;;;;;;;12.95;4.65;;;;;;;12.86;94.94;101094.25;5092071;28;20020;-58
2023/10/25 08:06:43;;;;;;;10.40;3.70;;;;;;;12.80;94.86;101096.97;5092117;28;20060;-58
2023/10/25 08:09:09;;;;;;;13.80;4.65;;;;;;;12.78;94.61;101101.75;5094686;28;20122;-58
2023/10/25 08:11:37;;;;;;;11.70;4.50;;;;;;;12.76;94.22;101093.88;5111784;28;20495;-57
2023/10/25 08:14:04;;;;;;;20.20;5.05;;;;;;;13.00;93.78;101091.50;5112336;28;20030;-58
2023/10/25 08:16:30;;;;;;;13.68;4.15;;;;;;;12.98;93.71;101088.19;5112282;28;20016;-58
2023/10/25 08:18:56;;;;;;;13.98;5.03;;;;;;;12.95;93.40;101092.97;5108837;28;20702;-58
2023/10/25 08:21:23;;;;;;;18.95;4.85;;;;;;;12.98;93.53;101096.25;5112009;28;20027;-58
2023/10/25 08:23:51;;;;;;;16.65;4.57;;;;;;;12.86;94.38;101096.94;5101025;28;20059;-58
2023/10/25 08:26:21;;;;;;;15.57;4.53;;;;;;;12.92;94.35;101089.88;5092036;28;20024;-58
2023/10/25 08:28:48;;;;;;;16.30;4.65;;;;;;;12.82;94.61;101092.19;5097479;28;20028;-58
2023/10/25 08:31:16;;;;;;;12.50;4.30;;;;;;;12.74;95.14;101079.84;5111900;28;20036;-58
2023/10/25 08:33:43;;;;;;;15.52;4.57;;;;;;;12.74;94.76;101087.09;5112399;28;20016;-58
2023/10/25 08:36:09;;;;;;;11.95;5.28;;;;;;;12.81;95.19;101080.63;5111691;28;20109;-58
2023/10/25 08:38:36;;;;;;;11.27;4.68;;;;;;;12.67;95.57;101081.75;5112690;28;20032;-58
2023/10/25 08:41:06;;;;;;;12.45;4.35;;;;;;;12.73;95.35;101080.91;5112095;28;20102;-58
2023/10/25 08:43:34;;;;;;;11.13;4.25;;;;;;;12.62;95.93;101073.50;5112328;28;20377;-58
2023/10/25 08:46:03;;;;;;;20.63;5.00;;;;;;;12.74;96.19;101074.47;5098262;28;20032;-58
2023/10/25 08:48:30;;;;;;;18.23;5.57;;;;;;;12.72;95.88;101071.19;5091875;28;20039;-58
2023/10/25 08:50:58;;;;;;;19.08;5.93;;;;;;;12.69;95.69;101066.25;5092904;28;20031;-57
2023/10/25 08:53:27;;;;;;;13.70;4.68;;;;;;;12.80;94.73;101068.25;5112145;28;20076;-58
2023/10/25 08:55:55;;;;;;;18.77;5.65;;;;;;;12.82;94.90;101068.84;5101527;28;20024;-58
2023/10/25 08:58:25;;;;;;;12.85;4.40;;;;;;;12.77;94.99;101074.06;5112069;28;20063;-58
2023/10/25 09:00:53;;;;;;;11.90;4.20;;;;;;;12.67;95.35;101076.38;5111204;28;20031;-58
2023/10/25 09:03:31;;;;;;;12.95;4.20;;;;;;;12.38;96.19;101064.31;5111903;28;20493;-58
2023/10/25 09:06:05;;;;;;;18.10;4.95;;;;;;;12.50;96.01;101072.53;5111973;28;20035;-58
2023/10/25 09:08:32;;;;;;;16.67;5.10;;;;;;;12.54;97.33;101069.19;5111550;28;20381;-58
2023/10/25 09:11:04;;;;;;;18.23;5.20;;;;;;;12.59;97.91;101076.63;5111329;28;20077;-58
2023/10/25 09:13:44;;;;;;;18.75;5.40;;;;;;;12.41;97.96;101082.69;5111638;28;20039;-58
2023/10/25 09:16:16;;;;;;;18.63;5.25;;;;;;;12.56;97.86;101077.06;5091716;28;20020;-58
2023/10/25 09:18:42;;;;;;;19.63;5.20;;;;;;;12.48;98.36;101070.06;5101028;28;20042;-58
2023/10/25 09:21:12;;;;;;;16.48;5.10;;;;;;;12.49;97.45;101069.00;5111530;28;20024;-58
2023/10/25 09:23:38;;;;;;;9.55;4.25;;;;;;;12.60;97.34;101072.88;5111244;28;20032;-58
2023/10/25 09:26:15;;;;;;;13.25;4.93;;;;;;;12.49;97.66;101071.69;5111545;28;20019;-58
2023/10/25 09:28:43;;;;;;;17.27;4.90;;;;;;;12.40;97.63;101065.75;5109214;28;20030;-58
2023/10/25 09:31:30;;;;;;;18.27;5.25;;;;;;;12.48;97.18;101066.53;5101907;28;20028;-58
2023/10/25 09:34:02;;;;;;;14.75;4.57;;;;;;;12.43;98.44;101068.00;5110893;28;20035;-58
2023/10/25 09:36:28;;;;;;;20.23;5.38;;;;;;;12.67;97.23;101071.84;5095102;28;20140;-58
2023/10/25 09:38:56;;;;;;;15.70;4.35;;;;;;;12.57;97.37;101078.69;5111455;28;20511;-58
2023/10/25 09:41:26;;;;;;;15.55;5.30;;;;;;;12.48;97.68;101086.16;5111266;28;20080;-58
2023/10/25 09:43:59;;;;;;;14.52;4.57;;;;;;;12.46;98.04;101088.25;5114931;28;20484;-59
2023/10/25 09:46:30;;;;;;;18.50;5.00;;;;;;;12.35;98.53;101078.16;5114875;28;20381;-57
2023/10/25 09:49:04;;;;;;;19.27;5.25;;;;;;;12.39;98.65;101065.97;5109675;28;20093;-58
2023/10/25 09:51:54;;;;;;;14.95;5.05;;;;;;;12.45;97.80;101066.97;5111999;28;20028;-57
2023/10/25 09:54:32;;;;;;;16.00;4.78;;;;;;;12.28;98.78;101066.63;5111571;28;20028;-58
2023/10/25 09:56:59;;;;;;;13.82;4.68;;;;;;;12.31;99.45;101069.69;5094296;28;20024;-58
2023/10/25 09:59:32;;;;;;;19.17;5.50;;;;;;;12.38;98.77;101083.09;5104712;28;20030;-58
2023/10/25 10:02:00;;;;;;;13.52;3.90;;;;;;;12.55;97.05;101081.59;5114869;28;20035;-58
2023/10/25 10:04:52;;;;;;;12.95;4.32;;;;;;;12.47;97.16;101072.97;5114741;28;20019;-58
2023/10/25 10:07:36;;;;;;;16.58;4.20;;;;;;;12.42;97.46;101081.63;5101942;28;20050;-58
2023/10/25 10:10:25;;;;;;;22.05;5.10;;;;;;;12.33;97.91;101089.13;5114466;28;20035;-58
2023/10/25 10:12:51;;;;;;;13.13;4.07;;;;;;;12.36;97.67;101077.94;5103761;28;20039;-58
2023/10/25 10:15:19;;;;;;;21.20;4.95;;;;;;;12.24;98.26;101085.00;5114710;28;20084;-58
2023/10/25 10:17:45;;;;;;;14.00;4.35;;;;;;;12.34;97.97;101090.75;5115055;28;20019;-58
2023/10/25 10:20:29;;;;;;;10.05;3.97;;;;;;;12.42;97.80;101087.00;5114349;28;20034;-58
2023/10/25 10:23:07;;;;;;;17.52;4.63;;;;;;;12.41;97.96;101096.94;5114788;28;20020;-58
2023/10/25 10:25:45;;;;;;;13.55;5.05;;;;;;;12.37;97.71;101109.13;5114602;28;20019;-58
2023/10/25 10:28:11;;;;;;;14.05;5.75;;;;;;;12.33;97.41;101104.41;5110818;28;20431;-59
2023/10/25 10:30:39;;;;;;;14.07;5.50;;;;;;;12.28;97.82;101096.16;5114068;28;20028;-58
2023/10/25 10:33:09;;;;;;;13.98;4.50;;;;;;;12.23;98.01;101094.09;5098973;28;20134;-58
2023/10/25 10:35:35;;;;;;;11.07;4.75;;;;;;;12.27;97.34;101100.72;5113894;28;20354;-58
2023/10/25 10:38:03;;;;;;;13.13;5.45;;;;;;;12.21;97.79;101095.31;5104123;28;20028;-58
2023/10/25 10:40:29;;;;;;;13.18;4.32;;;;;;;12.39;97.81;101093.63;5098668;28;20048;-58
2023/10/25 10:42:56;;;;;;;15.25;4.53;;;;;;;12.03;99.08;101093.31;5113927;28;20028;-58
2023/10/25 10:45:22;;;;;;;8.95;3.55;;;;;;;12.12;99.38;101097.44;5113983;28;20031;-58
2023/10/25 10:47:56;;;;;;;14.95;4.70;;;;;;;12.31;99.38;101096.53;5095082;28;20564;-58
2023/10/25 10:50:24;;;;;;;9.65;3.95;;;;;;;12.19;99.19;101103.59;5102533;28;20024;-58
2023/10/25 10:52:52;;;;;;;20.88;4.65;;;;;;;12.10;99.44;101103.00;5107725;28;20036;-58
2023/10/25 10:55:20;;;;;;;10.75;4.50;;;;;;;12.19;99.33;101105.47;5113637;28;20039;-57
2023/10/25 10:57:46;;;;;;;9.60;3.30;;;;;;;12.19;99.90;101095.56;5113174;28;20032;-58
2023/10/25 11:00:16;;;;;;;9.98;3.17;;;;;;;12.13;99.48;101080.28;5113271;28;20092;-58
2023/10/25 11:02:50;;;;;;;12.25;3.55;;;;;;;12.10;99.98;101078.00;5109957;28;20023;-57
2023/10/25 11:05:22;;;;;;;16.30;4.33;;;;;;;12.07;100.00;101081.13;5113792;28;20512;-57
2023/10/25 11:07:50;;;;;;;14.95;4.13;;;;;;;12.23;99.89;101080.69;5113248;28;20089;-57
2023/10/25 11:10:17;;;;;;;13.45;3.60;;;;;;;12.33;99.47;101081.06;5112950;28;20051;-58
2023/10/25 11:12:44;;;;;;;10.50;3.70;;;;;;;12.32;99.34;101074.03;5113334;28;20111;-58
2023/10/25 11:15:12;;;;;;;12.70;3.75;;;;;;;12.32;99.23;101070.53;5113508;28;20031;-57
2023/10/25 11:17:39;;;;;;;11.13;4.28;;;;;;;12.27;99.61;101079.22;5111283;28;20092;-58
2023/10/25 11:20:06;;;;;;;15.35;4.47;;;;;;;12.08;100.00;101070.19;5112544;28;20048;-58